sensor_id;sensor_type;location;lat;lon;timestamp;temperature;humidity
83146;DHT22;73037;51.110;4.706;2023-11-21T00:02:04;8.40;84.10
83146;DHT22;73037;51.110;4.706;2023-11-21T00:04:30;8.50;84.10
83146;DHT22;73037;51.110;4.706;2023-11-21T00:06:56;8.50;83.90
83146;DHT22;73037;51.110;4.706;2023-11-21T00:09:22;8.50;83.80
83146;DHT22;73037;51.110;4.706;2023-11-21T00:11:48;8.50;83.70
83146;DHT22;73037;51.110;4.706;2023-11-21T00:14:13;8.50;83.80
83146;DHT22;73037;51.110;4.706;2023-11-21T00:16:41;8.50;83.60
83146;DHT22;73037;51.110;4.706;2023-11-21T00:19:07;8.40;83.60
83146;DHT22;73037;51.110;4.706;2023-11-21T00:21:32;8.30;83.40
83146;DHT22;73037;51.110;4.706;2023-11-21T00:23:58;8.20;83.50
83146;DHT22;73037;51.110;4.706;2023-11-21T00:26:23;8.20;83.60
83146;DHT22;73037;51.110;4.706;2023-11-21T00:28:50;8.10;83.70
83146;DHT22;73037;51.110;4.706;2023-11-21T00:31:16;8.00;83.50
83146;DHT22;73037;51.110;4.706;2023-11-21T00:33:41;8.00;83.60
83146;DHT22;73037;51.110;4.706;2023-11-21T00:36:08;8.00;83.90
83146;DHT22;73037;51.110;4.706;2023-11-21T00:38:36;8.00;83.80
83146;DHT22;73037;51.110;4.706;2023-11-21T00:41:01;8.00;83.70
83146;DHT22;73037;51.110;4.706;2023-11-21T00:43:28;8.10;83.70
83146;DHT22;73037;51.110;4.706;2023-11-21T00:45:54;8.10;84.00
83146;DHT22;73037;51.110;4.706;2023-11-21T00:48:19;8.10;83.90
83146;DHT22;73037;51.110;4.706;2023-11-21T00:50:45;8.20;84.00
83146;DHT22;73037;51.110;4.706;2023-11-21T00:53:10;8.20;84.10
83146;DHT22;73037;51.110;4.706;2023-11-21T00:55:37;8.30;84.00
83146;DHT22;73037;51.110;4.706;2023-11-21T00:58:05;8.30;84.00
83146;DHT22;73037;51.110;4.706;2023-11-21T01:00:35;8.40;83.90
83146;DHT22;73037;51.110;4.706;2023-11-21T01:03:00;8.40;83.90
83146;DHT22;73037;51.110;4.706;2023-11-21T01:05:26;8.40;83.90
83146;DHT22;73037;51.110;4.706;2023-11-21T01:07:52;8.40;84.00
83146;DHT22;73037;51.110;4.706;2023-11-21T01:10:18;8.40;83.80
83146;DHT22;73037;51.110;4.706;2023-11-21T01:12:43;8.40;83.90
83146;DHT22;73037;51.110;4.706;2023-11-21T01:15:09;8.40;83.90
83146;DHT22;73037;51.110;4.706;2023-11-21T01:17:37;8.50;83.80
83146;DHT22;73037;51.110;4.706;2023-11-21T01:20:04;8.50;83.90
83146;DHT22;73037;51.110;4.706;2023-11-21T01:22:37;8.50;83.90
83146;DHT22;73037;51.110;4.706;2023-11-21T01:25:03;8.50;83.90
83146;DHT22;73037;51.110;4.706;2023-11-21T01:27:33;8.50;83.80
83146;DHT22;73037;51.110;4.706;2023-11-21T01:30:00;8.50;83.90
83146;DHT22;73037;51.110;4.706;2023-11-21T01:32:25;8.50;83.70
83146;DHT22;73037;51.110;4.706;2023-11-21T01:34:51;8.60;83.90
83146;DHT22;73037;51.110;4.706;2023-11-21T01:37:16;8.60;83.80
83146;DHT22;73037;51.110;4.706;2023-11-21T01:39:43;8.60;84.00
83146;DHT22;73037;51.110;4.706;2023-11-21T01:42:09;8.60;83.90
83146;DHT22;73037;51.110;4.706;2023-11-21T01:44:35;8.60;83.90
83146;DHT22;73037;51.110;4.706;2023-11-21T01:47:01;8.60;83.90
83146;DHT22;73037;51.110;4.706;2023-11-21T01:49:33;8.60;83.80
83146;DHT22;73037;51.110;4.706;2023-11-21T01:51:59;8.60;83.80
83146;DHT22;73037;51.110;4.706;2023-11-21T01:54:25;8.60;83.60
83146;DHT22;73037;51.110;4.706;2023-11-21T01:56:52;8.60;83.90
83146;DHT22;73037;51.110;4.706;2023-11-21T01:59:20;8.60;83.90
83146;DHT22;73037;51.110;4.706;2023-11-21T02:01:49;8.60;83.90
83146;DHT22;73037;51.110;4.706;2023-11-21T02:04:19;8.60;84.00
83146;DHT22;73037;51.110;4.706;2023-11-21T02:06:46;8.60;83.70
83146;DHT22;73037;51.110;4.706;2023-11-21T02:09:12;8.60;84.00
83146;DHT22;73037;51.110;4.706;2023-11-21T02:11:40;8.60;84.00
83146;DHT22;73037;51.110;4.706;2023-11-21T02:14:06;8.60;83.80
83146;DHT22;73037;51.110;4.706;2023-11-21T02:16:34;8.60;83.90
83146;DHT22;73037;51.110;4.706;2023-11-21T02:19:01;8.50;84.00
83146;DHT22;73037;51.110;4.706;2023-11-21T02:21:29;8.50;83.80
83146;DHT22;73037;51.110;4.706;2023-11-21T02:23:56;8.50;83.90
83146;DHT22;73037;51.110;4.706;2023-11-21T02:26:21;8.50;83.60
83146;DHT22;73037;51.110;4.706;2023-11-21T02:28:47;8.40;83.70
83146;DHT22;73037;51.110;4.706;2023-11-21T02:31:13;8.40;83.60
83146;DHT22;73037;51.110;4.706;2023-11-21T02:33:38;8.40;83.70
83146;DHT22;73037;51.110;4.706;2023-11-21T02:36:04;8.40;83.90
83146;DHT22;73037;51.110;4.706;2023-11-21T02:38:31;8.40;83.90
83146;DHT22;73037;51.110;4.706;2023-11-21T02:40:57;8.50;83.90
83146;DHT22;73037;51.110;4.706;2023-11-21T02:43:24;8.50;83.70
83146;DHT22;73037;51.110;4.706;2023-11-21T02:45:50;8.40;83.80
83146;DHT22;73037;51.110;4.706;2023-11-21T02:48:16;8.40;83.70
83146;DHT22;73037;51.110;4.706;2023-11-21T02:50:41;8.40;83.50
83146;DHT22;73037;51.110;4.706;2023-11-21T02:53:08;8.40;83.70
83146;DHT22;73037;51.110;4.706;2023-11-21T02:55:36;8.50;83.80
83146;DHT22;73037;51.110;4.706;2023-11-21T02:58:02;8.50;83.70
83146;DHT22;73037;51.110;4.706;2023-11-21T03:00:29;8.50;84.00
83146;DHT22;73037;51.110;4.706;2023-11-21T03:02:55;8.60;83.90
83146;DHT22;73037;51.110;4.706;2023-11-21T03:05:21;8.60;83.80
83146;DHT22;73037;51.110;4.706;2023-11-21T03:07:47;8.60;83.80
83146;DHT22;73037;51.110;4.706;2023-11-21T03:10:13;8.60;83.90
83146;DHT22;73037;51.110;4.706;2023-11-21T03:12:39;8.60;83.70
83146;DHT22;73037;51.110;4.706;2023-11-21T03:15:07;8.60;83.50
83146;DHT22;73037;51.110;4.706;2023-11-21T03:17:33;8.60;83.60
83146;DHT22;73037;51.110;4.706;2023-11-21T03:20:01;8.60;83.60
83146;DHT22;73037;51.110;4.706;2023-11-21T03:22:29;8.60;83.80
83146;DHT22;73037;51.110;4.706;2023-11-21T03:24:55;8.70;83.90
83146;DHT22;73037;51.110;4.706;2023-11-21T03:27:20;8.70;83.70
83146;DHT22;73037;51.110;4.706;2023-11-21T03:29:46;8.60;83.60
83146;DHT22;73037;51.110;4.706;2023-11-21T03:32:13;8.60;83.40
83146;DHT22;73037;51.110;4.706;2023-11-21T03:34:57;8.60;83.70
83146;DHT22;73037;51.110;4.706;2023-11-21T03:37:23;8.70;83.90
83146;DHT22;73037;51.110;4.706;2023-11-21T03:39:50;8.80;84.00
83146;DHT22;73037;51.110;4.706;2023-11-21T03:42:16;8.80;84.00
83146;DHT22;73037;51.110;4.706;2023-11-21T03:44:41;8.80;83.70
83146;DHT22;73037;51.110;4.706;2023-11-21T03:47:07;8.80;83.70
83146;DHT22;73037;51.110;4.706;2023-11-21T03:49:33;8.80;83.70
83146;DHT22;73037;51.110;4.706;2023-11-21T03:51:59;8.80;83.70
83146;DHT22;73037;51.110;4.706;2023-11-21T03:54:24;8.80;83.70
83146;DHT22;73037;51.110;4.706;2023-11-21T03:56:50;8.80;83.70
83146;DHT22;73037;51.110;4.706;2023-11-21T03:59:17;8.90;83.80
83146;DHT22;73037;51.110;4.706;2023-11-21T04:01:43;8.90;83.90
83146;DHT22;73037;51.110;4.706;2023-11-21T04:04:08;8.90;83.90
83146;DHT22;73037;51.110;4.706;2023-11-21T04:06:34;8.90;83.70
83146;DHT22;73037;51.110;4.706;2023-11-21T04:09:01;8.90;83.90
83146;DHT22;73037;51.110;4.706;2023-11-21T04:11:26;9.00;83.90
83146;DHT22;73037;51.110;4.706;2023-11-21T04:13:55;9.00;83.70
83146;DHT22;73037;51.110;4.706;2023-11-21T04:16:21;9.00;83.90
83146;DHT22;73037;51.110;4.706;2023-11-21T04:18:46;9.00;83.90
83146;DHT22;73037;51.110;4.706;2023-11-21T04:21:12;9.00;83.70
83146;DHT22;73037;51.110;4.706;2023-11-21T04:23:37;9.00;83.90
83146;DHT22;73037;51.110;4.706;2023-11-21T04:26:05;9.00;83.70
83146;DHT22;73037;51.110;4.706;2023-11-21T04:28:31;9.00;83.80
83146;DHT22;73037;51.110;4.706;2023-11-21T04:30:56;9.00;83.70
83146;DHT22;73037;51.110;4.706;2023-11-21T04:33:22;9.10;83.80
83146;DHT22;73037;51.110;4.706;2023-11-21T04:35:48;9.10;83.90
83146;DHT22;73037;51.110;4.706;2023-11-21T04:38:13;9.20;83.80
83146;DHT22;73037;51.110;4.706;2023-11-21T04:40:39;9.10;83.70
83146;DHT22;73037;51.110;4.706;2023-11-21T04:43:05;9.20;83.60
83146;DHT22;73037;51.110;4.706;2023-11-21T04:45:31;9.10;83.40
83146;DHT22;73037;51.110;4.706;2023-11-21T04:47:57;9.10;83.50
83146;DHT22;73037;51.110;4.706;2023-11-21T04:50:22;9.00;83.50
83146;DHT22;73037;51.110;4.706;2023-11-21T04:52:48;9.10;83.60
83146;DHT22;73037;51.110;4.706;2023-11-21T04:55:14;9.10;83.70
83146;DHT22;73037;51.110;4.706;2023-11-21T04:57:40;9.20;83.70
83146;DHT22;73037;51.110;4.706;2023-11-21T05:00:08;9.20;83.60
83146;DHT22;73037;51.110;4.706;2023-11-21T05:02:34;9.20;83.60
83146;DHT22;73037;51.110;4.706;2023-11-21T05:05:01;9.20;83.70
83146;DHT22;73037;51.110;4.706;2023-11-21T05:07:26;9.20;83.80
83146;DHT22;73037;51.110;4.706;2023-11-21T05:09:54;9.20;83.70
83146;DHT22;73037;51.110;4.706;2023-11-21T05:12:22;9.20;83.70
83146;DHT22;73037;51.110;4.706;2023-11-21T05:14:51;9.20;83.90
83146;DHT22;73037;51.110;4.706;2023-11-21T05:17:17;9.20;84.20
83146;DHT22;73037;51.110;4.706;2023-11-21T05:19:42;9.20;84.10
83146;DHT22;73037;51.110;4.706;2023-11-21T05:22:10;9.20;84.10
83146;DHT22;73037;51.110;4.706;2023-11-21T05:24:37;9.20;84.20
83146;DHT22;73037;51.110;4.706;2023-11-21T05:27:04;9.20;84.20
83146;DHT22;73037;51.110;4.706;2023-11-21T05:29:30;9.20;84.20
83146;DHT22;73037;51.110;4.706;2023-11-21T05:31:55;9.20;84.20
83146;DHT22;73037;51.110;4.706;2023-11-21T05:34:21;9.20;84.20
83146;DHT22;73037;51.110;4.706;2023-11-21T05:36:50;9.20;84.30
83146;DHT22;73037;51.110;4.706;2023-11-21T05:39:15;9.20;84.00
83146;DHT22;73037;51.110;4.706;2023-11-21T05:41:43;9.20;84.00
83146;DHT22;73037;51.110;4.706;2023-11-21T05:44:08;9.20;84.20
83146;DHT22;73037;51.110;4.706;2023-11-21T05:46:34;9.20;84.10
83146;DHT22;73037;51.110;4.706;2023-11-21T05:49:00;9.20;84.00
83146;DHT22;73037;51.110;4.706;2023-11-21T05:51:26;9.20;84.00
83146;DHT22;73037;51.110;4.706;2023-11-21T05:53:51;9.20;83.90
83146;DHT22;73037;51.110;4.706;2023-11-21T05:56:17;9.20;83.90
83146;DHT22;73037;51.110;4.706;2023-11-21T05:58:43;9.20;84.00
83146;DHT22;73037;51.110;4.706;2023-11-21T06:01:09;9.20;84.00
83146;DHT22;73037;51.110;4.706;2023-11-21T06:03:38;9.20;84.00
83146;DHT22;73037;51.110;4.706;2023-11-21T06:06:04;9.20;84.00
83146;DHT22;73037;51.110;4.706;2023-11-21T06:08:30;9.20;83.90
83146;DHT22;73037;51.110;4.706;2023-11-21T06:10:56;9.20;84.00
83146;DHT22;73037;51.110;4.706;2023-11-21T06:13:21;9.20;84.00
83146;DHT22;73037;51.110;4.706;2023-11-21T06:15:50;9.20;84.10
83146;DHT22;73037;51.110;4.706;2023-11-21T06:18:17;9.20;83.90
83146;DHT22;73037;51.110;4.706;2023-11-21T06:20:46;9.20;83.90
83146;DHT22;73037;51.110;4.706;2023-11-21T06:23:12;9.20;83.80
83146;DHT22;73037;51.110;4.706;2023-11-21T06:25:37;9.20;83.70
83146;DHT22;73037;51.110;4.706;2023-11-21T06:28:03;9.20;83.90
83146;DHT22;73037;51.110;4.706;2023-11-21T06:30:29;9.20;84.00
83146;DHT22;73037;51.110;4.706;2023-11-21T06:32:55;9.20;83.90
83146;DHT22;73037;51.110;4.706;2023-11-21T06:35:21;9.20;84.00
83146;DHT22;73037;51.110;4.706;2023-11-21T06:37:47;9.20;83.90
83146;DHT22;73037;51.110;4.706;2023-11-21T06:40:14;9.20;84.00
83146;DHT22;73037;51.110;4.706;2023-11-21T06:42:44;9.20;83.70
83146;DHT22;73037;51.110;4.706;2023-11-21T06:45:10;9.20;83.80
83146;DHT22;73037;51.110;4.706;2023-11-21T06:47:36;9.10;83.90
83146;DHT22;73037;51.110;4.706;2023-11-21T06:50:04;9.20;83.90
83146;DHT22;73037;51.110;4.706;2023-11-21T06:52:29;9.20;84.10
83146;DHT22;73037;51.110;4.706;2023-11-21T06:54:55;9.20;84.00
83146;DHT22;73037;51.110;4.706;2023-11-21T06:57:23;9.20;84.00
83146;DHT22;73037;51.110;4.706;2023-11-21T06:59:48;9.20;84.10
83146;DHT22;73037;51.110;4.706;2023-11-21T07:02:16;9.20;83.90
83146;DHT22;73037;51.110;4.706;2023-11-21T07:04:44;9.20;83.70
83146;DHT22;73037;51.110;4.706;2023-11-21T07:07:10;9.20;83.70
83146;DHT22;73037;51.110;4.706;2023-11-21T07:09:36;9.20;83.70
83146;DHT22;73037;51.110;4.706;2023-11-21T07:12:01;9.10;83.60
83146;DHT22;73037;51.110;4.706;2023-11-21T07:14:29;9.10;83.90
83146;DHT22;73037;51.110;4.706;2023-11-21T07:16:55;9.20;84.10
83146;DHT22;73037;51.110;4.706;2023-11-21T07:19:22;9.20;84.20
83146;DHT22;73037;51.110;4.706;2023-11-21T07:21:47;9.30;84.10
83146;DHT22;73037;51.110;4.706;2023-11-21T07:24:16;9.30;83.90
83146;DHT22;73037;51.110;4.706;2023-11-21T07:26:41;9.30;83.90
83146;DHT22;73037;51.110;4.706;2023-11-21T07:29:07;9.40;84.00
83146;DHT22;73037;51.110;4.706;2023-11-21T07:31:33;9.40;84.00
83146;DHT22;73037;51.110;4.706;2023-11-21T07:34:01;9.40;84.00
83146;DHT22;73037;51.110;4.706;2023-11-21T07:36:27;9.40;83.90
83146;DHT22;73037;51.110;4.706;2023-11-21T07:38:53;9.50;84.00
83146;DHT22;73037;51.110;4.706;2023-11-21T07:41:19;9.50;83.90
83146;DHT22;73037;51.110;4.706;2023-11-21T07:43:46;9.60;84.00
83146;DHT22;73037;51.110;4.706;2023-11-21T07:46:12;9.60;83.90
83146;DHT22;73037;51.110;4.706;2023-11-21T07:48:39;9.60;84.00
83146;DHT22;73037;51.110;4.706;2023-11-21T07:51:05;9.60;83.90
83146;DHT22;73037;51.110;4.706;2023-11-21T07:53:31;9.70;83.90
83146;DHT22;73037;51.110;4.706;2023-11-21T07:55:57;9.70;84.00
83146;DHT22;73037;51.110;4.706;2023-11-21T07:58:23;9.80;83.90
83146;DHT22;73037;51.110;4.706;2023-11-21T08:00:49;9.80;84.10
83146;DHT22;73037;51.110;4.706;2023-11-21T08:03:16;9.80;84.00
83146;DHT22;73037;51.110;4.706;2023-11-21T08:05:42;9.80;84.00
83146;DHT22;73037;51.110;4.706;2023-11-21T08:08:08;9.80;84.00
83146;DHT22;73037;51.110;4.706;2023-11-21T08:10:34;9.90;84.00
83146;DHT22;73037;51.110;4.706;2023-11-21T08:13:01;10.00;84.00
83146;DHT22;73037;51.110;4.706;2023-11-21T08:15:27;9.90;83.80
83146;DHT22;73037;51.110;4.706;2023-11-21T08:17:52;9.90;83.90
83146;DHT22;73037;51.110;4.706;2023-11-21T08:20:18;9.90;83.90
83146;DHT22;73037;51.110;4.706;2023-11-21T08:22:44;10.00;84.00
83146;DHT22;73037;51.110;4.706;2023-11-21T08:25:10;10.00;84.00
83146;DHT22;73037;51.110;4.706;2023-11-21T08:27:36;10.00;83.90
83146;DHT22;73037;51.110;4.706;2023-11-21T08:30:06;10.00;84.00
83146;DHT22;73037;51.110;4.706;2023-11-21T08:32:32;10.00;83.90
83146;DHT22;73037;51.110;4.706;2023-11-21T08:34:59;10.00;84.00
83146;DHT22;73037;51.110;4.706;2023-11-21T08:37:25;10.10;84.00
83146;DHT22;73037;51.110;4.706;2023-11-21T08:39:52;10.10;83.90
83146;DHT22;73037;51.110;4.706;2023-11-21T08:42:19;10.10;83.70
83146;DHT22;73037;51.110;4.706;2023-11-21T08:44:45;10.20;84.00
83146;DHT22;73037;51.110;4.706;2023-11-21T08:47:11;10.20;84.00
83146;DHT22;73037;51.110;4.706;2023-11-21T08:49:37;10.20;83.80
83146;DHT22;73037;51.110;4.706;2023-11-21T08:52:03;10.20;83.80
83146;DHT22;73037;51.110;4.706;2023-11-21T08:54:30;10.20;83.80
83146;DHT22;73037;51.110;4.706;2023-11-21T08:56:56;10.20;83.80
83146;DHT22;73037;51.110;4.706;2023-11-21T08:59:26;10.30;83.90
83146;DHT22;73037;51.110;4.706;2023-11-21T09:01:52;10.30;84.00
83146;DHT22;73037;51.110;4.706;2023-11-21T09:04:17;10.40;84.00
83146;DHT22;73037;51.110;4.706;2023-11-21T09:06:43;10.40;84.00
83146;DHT22;73037;51.110;4.706;2023-11-21T09:09:09;10.40;83.70
83146;DHT22;73037;51.110;4.706;2023-11-21T09:11:36;10.50;83.80
83146;DHT22;73037;51.110;4.706;2023-11-21T09:14:02;10.60;83.70
83146;DHT22;73037;51.110;4.706;2023-11-21T09:16:29;10.60;83.50
83146;DHT22;73037;51.110;4.706;2023-11-21T09:18:54;10.70;83.70
83146;DHT22;73037;51.110;4.706;2023-11-21T09:21:20;10.70;83.70
83146;DHT22;73037;51.110;4.706;2023-11-21T09:23:46;10.80;83.70
83146;DHT22;73037;51.110;4.706;2023-11-21T09:26:12;10.90;83.50
83146;DHT22;73037;51.110;4.706;2023-11-21T09:28:37;10.80;83.50
83146;DHT22;73037;51.110;4.706;2023-11-21T09:31:04;10.80;83.70
83146;DHT22;73037;51.110;4.706;2023-11-21T09:33:34;10.80;83.40
83146;DHT22;73037;51.110;4.706;2023-11-21T09:36:00;10.70;83.40
83146;DHT22;73037;51.110;4.706;2023-11-21T09:38:26;10.70;83.70
83146;DHT22;73037;51.110;4.706;2023-11-21T09:40:54;10.70;83.70
83146;DHT22;73037;51.110;4.706;2023-11-21T09:43:21;10.80;83.90
83146;DHT22;73037;51.110;4.706;2023-11-21T09:45:54;10.80;83.60
83146;DHT22;73037;51.110;4.706;2023-11-21T09:48:21;10.80;83.60
83146;DHT22;73037;51.110;4.706;2023-11-21T09:50:48;10.80;83.80
83146;DHT22;73037;51.110;4.706;2023-11-21T09:53:21;10.90;83.90
83146;DHT22;73037;51.110;4.706;2023-11-21T09:55:48;11.00;83.70
83146;DHT22;73037;51.110;4.706;2023-11-21T09:58:16;11.00;83.70
83146;DHT22;73037;51.110;4.706;2023-11-21T10:00:44;11.00;83.30
83146;DHT22;73037;51.110;4.706;2023-11-21T10:03:10;11.00;83.30
83146;DHT22;73037;51.110;4.706;2023-11-21T10:05:37;10.90;83.20
83146;DHT22;73037;51.110;4.706;2023-11-21T10:08:12;10.90;83.40
83146;DHT22;73037;51.110;4.706;2023-11-21T10:10:43;10.80;83.40
83146;DHT22;73037;51.110;4.706;2023-11-21T10:13:16;10.70;83.50
83146;DHT22;73037;51.110;4.706;2023-11-21T10:15:43;10.70;83.80
83146;DHT22;73037;51.110;4.706;2023-11-21T10:18:14;10.70;84.10
83146;DHT22;73037;51.110;4.706;2023-11-21T10:20:43;10.80;83.70
83146;DHT22;73037;51.110;4.706;2023-11-21T10:23:12;10.70;83.60
83146;DHT22;73037;51.110;4.706;2023-11-21T10:25:38;10.60;83.40
83146;DHT22;73037;51.110;4.706;2023-11-21T10:28:04;10.60;83.50
83146;DHT22;73037;51.110;4.706;2023-11-21T10:30:37;10.60;83.70
83146;DHT22;73037;51.110;4.706;2023-11-21T10:33:04;10.70;83.70
83146;DHT22;73037;51.110;4.706;2023-11-21T10:35:49;10.70;83.90
83146;DHT22;73037;51.110;4.706;2023-11-21T10:38:20;10.80;83.70
83146;DHT22;73037;51.110;4.706;2023-11-21T10:40:49;10.80;83.30
83146;DHT22;73037;51.110;4.706;2023-11-21T10:43:16;10.80;83.00
83146;DHT22;73037;51.110;4.706;2023-11-21T10:45:42;10.80;83.40
83146;DHT22;73037;51.110;4.706;2023-11-21T10:48:12;10.90;83.70
83146;DHT22;73037;51.110;4.706;2023-11-21T10:50:40;10.90;83.50
83146;DHT22;73037;51.110;4.706;2023-11-21T10:53:06;11.00;83.50
83146;DHT22;73037;51.110;4.706;2023-11-21T10:55:35;11.10;83.20
83146;DHT22;73037;51.110;4.706;2023-11-21T10:58:02;11.10;83.40
83146;DHT22;73037;51.110;4.706;2023-11-21T11:00:30;11.30;83.10
83146;DHT22;73037;51.110;4.706;2023-11-21T11:02:56;11.30;83.20
83146;DHT22;73037;51.110;4.706;2023-11-21T11:05:23;11.30;83.20
83146;DHT22;73037;51.110;4.706;2023-11-21T11:08:12;11.30;82.60
83146;DHT22;73037;51.110;4.706;2023-11-21T11:10:46;11.30;83.30
83146;DHT22;73037;51.110;4.706;2023-11-21T11:13:16;11.40;82.90
83146;DHT22;73037;51.110;4.706;2023-11-21T11:15:42;11.30;83.20
83146;DHT22;73037;51.110;4.706;2023-11-21T11:18:10;11.50;83.70
83146;DHT22;73037;51.110;4.706;2023-11-21T11:20:37;11.60;83.50
83146;DHT22;73037;51.110;4.706;2023-11-21T11:28:34;11.60;83.20
83146;DHT22;73037;51.110;4.706;2023-11-21T11:31:38;11.70;83.30
83146;DHT22;73037;51.110;4.706;2023-11-21T11:34:32;11.70;83.20
83146;DHT22;73037;51.110;4.706;2023-11-21T11:37:04;11.70;83.00
83146;DHT22;73037;51.110;4.706;2023-11-21T11:39:38;11.50;82.20
83146;DHT22;73037;51.110;4.706;2023-11-21T11:42:08;11.40;82.80
83146;DHT22;73037;51.110;4.706;2023-11-21T11:47:16;11.20;83.20
83146;DHT22;73037;51.110;4.706;2023-11-21T11:50:10;11.20;83.90
83146;DHT22;73037;51.110;4.706;2023-11-21T11:53:11;11.30;83.50
83146;DHT22;73037;51.110;4.706;2023-11-21T11:55:38;11.20;82.90
83146;DHT22;73037;51.110;4.706;2023-11-21T11:58:06;11.10;83.50
83146;DHT22;73037;51.110;4.706;2023-11-21T12:03:01;11.10;83.60
83146;DHT22;73037;51.110;4.706;2023-11-21T12:05:30;11.10;84.00
83146;DHT22;73037;51.110;4.706;2023-11-21T12:08:00;11.20;84.10
83146;DHT22;73037;51.110;4.706;2023-11-21T12:10:29;11.20;83.60
83146;DHT22;73037;51.110;4.706;2023-11-21T12:15:25;11.40;83.70
83146;DHT22;73037;51.110;4.706;2023-11-21T12:17:51;11.40;83.60
83146;DHT22;73037;51.110;4.706;2023-11-21T12:20:22;11.50;83.50
83146;DHT22;73037;51.110;4.706;2023-11-21T12:22:53;11.50;83.60
83146;DHT22;73037;51.110;4.706;2023-11-21T12:25:29;11.60;83.30
83146;DHT22;73037;51.110;4.706;2023-11-21T12:27:57;11.70;83.60
83146;DHT22;73037;51.110;4.706;2023-11-21T12:30:29;11.50;83.20
83146;DHT22;73037;51.110;4.706;2023-11-21T12:32:57;11.50;83.00
83146;DHT22;73037;51.110;4.706;2023-11-21T12:35:28;11.40;82.60
83146;DHT22;73037;51.110;4.706;2023-11-21T12:37:56;11.30;82.90
83146;DHT22;73037;51.110;4.706;2023-11-21T12:40:24;11.30;83.50
83146;DHT22;73037;51.110;4.706;2023-11-21T12:42:59;11.30;83.20
83146;DHT22;73037;51.110;4.706;2023-11-21T12:45:27;11.40;83.40
83146;DHT22;73037;51.110;4.706;2023-11-21T12:47:54;11.40;83.50
83146;DHT22;73037;51.110;4.706;2023-11-21T12:50:24;11.40;83.40
83146;DHT22;73037;51.110;4.706;2023-11-21T12:52:57;11.50;84.10
83146;DHT22;73037;51.110;4.706;2023-11-21T12:55:24;11.50;83.60
83146;DHT22;73037;51.110;4.706;2023-11-21T12:57:52;11.50;83.20
83146;DHT22;73037;51.110;4.706;2023-11-21T13:00:26;11.50;83.30
83146;DHT22;73037;51.110;4.706;2023-11-21T13:02:55;11.50;83.60
83146;DHT22;73037;51.110;4.706;2023-11-21T13:05:36;11.50;83.40
83146;DHT22;73037;51.110;4.706;2023-11-21T13:08:07;11.50;83.10
83146;DHT22;73037;51.110;4.706;2023-11-21T13:10:36;11.50;83.30
83146;DHT22;73037;51.110;4.706;2023-11-21T13:13:03;11.50;82.90
83146;DHT22;73037;51.110;4.706;2023-11-21T13:15:31;11.50;83.50
83146;DHT22;73037;51.110;4.706;2023-11-21T13:17:58;11.50;83.40
83146;DHT22;73037;51.110;4.706;2023-11-21T13:20:25;11.50;82.80
83146;DHT22;73037;51.110;4.706;2023-11-21T13:22:51;11.50;83.00
83146;DHT22;73037;51.110;4.706;2023-11-21T13:25:29;11.50;83.60
83146;DHT22;73037;51.110;4.706;2023-11-21T13:27:57;11.50;83.50
83146;DHT22;73037;51.110;4.706;2023-11-21T13:30:24;11.60;83.50
83146;DHT22;73037;51.110;4.706;2023-11-21T13:33:02;11.70;83.70
83146;DHT22;73037;51.110;4.706;2023-11-21T13:35:30;11.70;83.50
83146;DHT22;73037;51.110;4.706;2023-11-21T13:38:10;11.70;83.00
83146;DHT22;73037;51.110;4.706;2023-11-21T13:40:37;11.70;83.80
83146;DHT22;73037;51.110;4.706;2023-11-21T13:43:10;11.70;83.00
83146;DHT22;73037;51.110;4.706;2023-11-21T13:45:37;11.60;83.40
83146;DHT22;73037;51.110;4.706;2023-11-21T13:48:05;11.50;83.20
83146;DHT22;73037;51.110;4.706;2023-11-21T13:50:36;11.50;83.60
83146;DHT22;73037;51.110;4.706;2023-11-21T13:53:03;11.50;83.40
83146;DHT22;73037;51.110;4.706;2023-11-21T13:55:44;11.40;83.60
83146;DHT22;73037;51.110;4.706;2023-11-21T13:58:11;11.40;83.60
83146;DHT22;73037;51.110;4.706;2023-11-21T14:00:42;11.40;84.00
83146;DHT22;73037;51.110;4.706;2023-11-21T14:03:12;11.50;84.20
83146;DHT22;73037;51.110;4.706;2023-11-21T14:05:50;11.50;83.80
83146;DHT22;73037;51.110;4.706;2023-11-21T14:08:21;11.40;83.50
83146;DHT22;73037;51.110;4.706;2023-11-21T14:10:49;11.40;83.30
83146;DHT22;73037;51.110;4.706;2023-11-21T14:13:18;11.30;83.80
83146;DHT22;73037;51.110;4.706;2023-11-21T14:15:49;11.40;83.60
83146;DHT22;73037;51.110;4.706;2023-11-21T14:18:17;11.30;83.40
83146;DHT22;73037;51.110;4.706;2023-11-21T14:20:51;11.30;83.90
83146;DHT22;73037;51.110;4.706;2023-11-21T14:23:17;11.20;83.80
83146;DHT22;73037;51.110;4.706;2023-11-21T14:25:43;11.10;84.10
83146;DHT22;73037;51.110;4.706;2023-11-21T14:28:09;11.10;83.60
83146;DHT22;73037;51.110;4.706;2023-11-21T14:30:37;11.10;83.50
83146;DHT22;73037;51.110;4.706;2023-11-21T14:33:05;11.10;83.60
83146;DHT22;73037;51.110;4.706;2023-11-21T14:35:31;11.10;83.50
83146;DHT22;73037;51.110;4.706;2023-11-21T14:37:58;11.00;83.70
83146;DHT22;73037;51.110;4.706;2023-11-21T14:40:24;11.00;84.00
83146;DHT22;73037;51.110;4.706;2023-11-21T14:42:51;11.00;84.20
83146;DHT22;73037;51.110;4.706;2023-11-21T14:45:21;10.90;83.60
83146;DHT22;73037;51.110;4.706;2023-11-21T14:47:49;10.90;84.00
83146;DHT22;73037;51.110;4.706;2023-11-21T14:50:26;10.90;84.00
83146;DHT22;73037;51.110;4.706;2023-11-21T14:53:10;10.80;83.90
83146;DHT22;73037;51.110;4.706;2023-11-21T14:55:39;10.70;83.70
83146;DHT22;73037;51.110;4.706;2023-11-21T14:58:18;10.70;84.00
83146;DHT22;73037;51.110;4.706;2023-11-21T15:00:54;10.70;84.10
83146;DHT22;73037;51.110;4.706;2023-11-21T15:03:24;10.70;83.90
83146;DHT22;73037;51.110;4.706;2023-11-21T15:05:56;10.60;83.80
83146;DHT22;73037;51.110;4.706;2023-11-21T15:08:22;10.60;84.20
83146;DHT22;73037;51.110;4.706;2023-11-21T15:10:55;10.60;83.20
83146;DHT22;73037;51.110;4.706;2023-11-21T15:13:21;10.60;84.10
83146;DHT22;73037;51.110;4.706;2023-11-21T15:15:49;10.50;84.00
83146;DHT22;73037;51.110;4.706;2023-11-21T15:18:14;10.50;84.20
83146;DHT22;73037;51.110;4.706;2023-11-21T15:20:40;10.60;84.20
83146;DHT22;73037;51.110;4.706;2023-11-21T15:23:07;10.60;84.40
83146;DHT22;73037;51.110;4.706;2023-11-21T15:25:33;10.60;84.10
83146;DHT22;73037;51.110;4.706;2023-11-21T15:28:01;10.50;83.50
83146;DHT22;73037;51.110;4.706;2023-11-21T15:30:28;10.50;84.10
83146;DHT22;73037;51.110;4.706;2023-11-21T15:33:00;10.50;84.10
83146;DHT22;73037;51.110;4.706;2023-11-21T15:35:26;10.50;83.90
83146;DHT22;73037;51.110;4.706;2023-11-21T15:37:53;10.40;84.20
83146;DHT22;73037;51.110;4.706;2023-11-21T15:40:19;10.40;83.80
83146;DHT22;73037;51.110;4.706;2023-11-21T15:42:44;10.40;84.30
83146;DHT22;73037;51.110;4.706;2023-11-21T15:45:10;10.40;83.90
83146;DHT22;73037;51.110;4.706;2023-11-21T15:47:36;10.30;83.60
83146;DHT22;73037;51.110;4.706;2023-11-21T15:50:02;10.30;84.00
83146;DHT22;73037;51.110;4.706;2023-11-21T15:52:29;10.30;84.10
83146;DHT22;73037;51.110;4.706;2023-11-21T15:54:55;10.30;83.90
83146;DHT22;73037;51.110;4.706;2023-11-21T15:57:21;10.30;83.90